Time;durP1;ratioP1;P1;durP2;ratioP2;P2;SDS_P1;SDS_P2;PMS_P1;PMS_P2;Temp;Humidity;BMP_temperature;BMP_pressure;BME280_temperature;BME280_humidity;BME280_pressure;Samples;Min_cycle;Max_cycle;Signal;HPM_P1;HPM_P2
2023/12/27 00:02:16;;;;;;;11.73;3.40;;;8.10;99.90;;;8.52;72.39;101102.09;5058105;28;20507;-84
2023/12/27 00:04:44;;;;;;;13.95;3.88;;;8.10;99.90;;;8.49;72.41;101102.47;5075949;28;20518;-84
2023/12/27 00:07:11;;;;;;;13.18;4.03;;;8.00;99.90;;;8.48;72.61;101098.97;5074204;28;20082;-84
2023/12/27 00:09:38;;;;;;;13.32;3.53;;;8.00;99.90;;;8.48;72.52;101092.84;5087014;28;20059;-84
2023/12/27 00:12:09;;;;;;;9.30;3.95;;;8.00;99.90;;;8.46;72.54;101086.88;5074704;28;20042;-84
2023/12/27 00:14:36;;;;;;;16.30;3.78;;;8.00;99.90;;;8.44;72.73;101087.09;5074511;28;20450;-84
2023/12/27 00:17:03;;;;;;;15.20;4.78;;;8.00;99.90;;;8.44;72.57;101088.88;5057961;28;20051;-84
2023/12/27 00:19:32;;;;;;;14.80;3.45;;;8.00;99.90;;;8.40;72.51;101090.28;5075341;28;20041;-84
2023/12/27 00:21:59;;;;;;;13.98;3.42;;;8.00;99.90;;;8.39;72.97;101091.25;5075925;28;20064;-84
2023/12/27 00:24:27;;;;;;;14.07;3.72;;;8.00;99.90;;;8.36;72.37;101094.28;5074749;28;20040;-84
2023/12/27 00:26:57;;;;;;;11.60;3.60;;;7.90;99.90;;;8.35;72.71;101100.59;5078084;28;20049;-84
2023/12/27 00:29:26;;;;;;;12.93;3.53;;;7.90;99.90;;;8.31;72.62;101097.47;5074373;28;20075;-84
2023/12/27 00:31:54;;;;;;;10.55;3.53;;;7.90;99.90;;;8.31;72.66;101088.69;5073918;28;20499;-84
2023/12/27 00:34:21;;;;;;;16.00;3.15;;;7.90;99.90;;;8.26;72.52;101094.53;5082117;28;20044;-84
2023/12/27 00:36:49;;;;;;;11.38;3.50;;;7.90;99.90;;;8.23;72.51;101087.72;5070170;28;20044;-84
2023/12/27 00:39:23;;;;;;;16.30;4.60;;;7.80;99.90;;;8.21;72.37;101080.97;5055532;28;20553;-84
2023/12/27 00:41:51;;;;;;;19.58;4.40;;;7.80;99.90;;;8.20;72.43;101077.47;5098547;28;20043;-84
2023/12/27 00:44:19;;;;;;;13.13;3.50;;;7.80;99.90;;;8.22;72.48;101071.97;5074360;28;20503;-84
2023/12/27 00:46:48;;;;;;;16.23;3.88;;;7.80;99.90;;;8.22;72.34;101074.63;5074201;28;20099;-84
2023/12/27 00:49:16;;;;;;;15.32;4.05;;;7.80;99.90;;;8.19;72.10;101073.16;5068020;28;20045;-84
2023/12/27 00:51:45;;;;;;;11.63;3.75;;;7.70;99.90;;;8.20;72.29;101072.16;5094279;28;20044;-84
2023/12/27 00:54:12;;;;;;;15.70;4.65;;;7.70;99.90;;;8.19;72.28;101075.81;5094122;28;20514;-84
2023/12/27 00:56:41;;;;;;;13.05;3.47;;;7.70;99.90;;;8.15;71.81;101071.88;5074932;28;20059;-84
2023/12/27 00:59:08;;;;;;;13.30;3.75;;;7.70;99.90;;;8.14;72.29;101069.38;5074475;28;20036;-84
2023/12/27 01:01:35;;;;;;;18.10;4.78;;;7.70;99.90;;;8.11;72.08;101064.44;5072883;28;20036;-84
2023/12/27 01:04:04;;;;;;;14.15;3.85;;;7.60;99.90;;;8.09;72.16;101064.63;5073522;28;20071;-84
2023/12/27 01:06:32;;;;;;;13.52;3.35;;;7.60;99.90;;;8.08;72.61;101059.50;5089471;28;20055;-84
2023/12/27 01:08:59;;;;;;;18.52;3.97;;;7.60;99.90;;;8.06;72.17;101070.31;5073637;28;20115;-84
2023/12/27 01:11:27;;;;;;;14.77;3.75;;;7.60;99.90;;;8.02;72.09;101065.53;5073951;28;20135;-84
2023/12/27 01:13:55;;;;;;;10.88;3.20;;;7.50;99.90;;;7.96;72.09;101067.91;5071907;28;20075;-84
2023/12/27 01:16:24;;;;;;;14.93;3.28;;;7.50;99.90;;;7.95;71.95;101060.09;5078228;28;20040;-84
2023/12/27 01:18:52;;;;;;;12.07;4.30;;;7.50;99.90;;;7.94;72.19;101055.78;5073552;28;20110;-84
2023/12/27 01:21:21;;;;;;;10.43;3.47;;;7.50;99.90;;;7.91;71.82;101057.00;5082909;28;20041;-84
2023/12/27 01:23:48;;;;;;;13.05;3.67;;;7.40;99.90;;;7.91;71.98;101066.78;5056779;28;20452;-84
2023/12/27 01:26:16;;;;;;;16.75;4.07;;;7.40;99.90;;;7.95;72.18;101066.25;5056758;28;20110;-84
2023/12/27 01:28:44;;;;;;;15.13;4.10;;;7.50;99.90;;;7.95;71.97;101068.91;5070708;28;20416;-84
2023/12/27 01:31:11;;;;;;;14.18;4.45;;;7.50;99.90;;;7.99;72.29;101069.34;5056535;28;20169;-84
2023/12/27 01:33:40;;;;;;;13.93;3.90;;;7.50;99.90;;;8.02;72.32;101066.34;5073041;28;20044;-84
2023/12/27 01:36:10;;;;;;;14.85;4.35;;;7.50;99.90;;;8.02;72.19;101071.66;5073443;28;20048;-84
2023/12/27 01:38:39;;;;;;;15.65;3.70;;;7.50;99.90;;;7.97;72.15;101068.72;5073296;28;20060;-84
2023/12/27 01:41:06;;;;;;;12.13;3.83;;;7.50;99.90;;;7.92;72.26;101076.41;5087515;28;20040;-84
2023/12/27 01:43:34;;;;;;;15.30;4.45;;;7.50;99.90;;;7.90;71.85;101065.13;5073004;28;20045;-84
2023/12/27 01:46:01;;;;;;;11.60;4.45;;;7.40;99.90;;;7.88;71.92;101064.47;5089135;28;20044;-84
2023/12/27 01:48:29;;;;;;;11.32;4.00;;;7.40;99.90;;;7.81;71.65;101067.03;5040255;28;20051;-84
2023/12/27 01:50:59;;;;;;;12.52;4.15;;;7.40;99.90;;;7.75;71.36;101075.69;5073733;28;20044;-84
2023/12/27 01:53:28;;;;;;;10.63;3.67;;;7.30;99.90;;;7.69;71.34;101074.56;5077417;28;20040;-84
2023/12/27 01:55:58;;;;;;;9.77;3.92;;;7.20;99.90;;;7.67;71.26;101079.25;5093332;28;20046;-84
2023/12/27 01:58:26;;;;;;;9.38;3.30;;;7.20;99.90;;;7.63;71.03;101067.31;5036900;28;20048;-84
2023/12/27 02:00:56;;;;;;;15.52;3.65;;;7.10;99.90;;;7.63;71.12;101069.16;5056507;28;20079;-84
2023/12/27 02:03:23;;;;;;;16.52;3.92;;;7.10;99.90;;;7.61;71.30;101074.66;5073143;28;20058;-84
2023/12/27 02:05:53;;;;;;;16.08;4.03;;;7.10;99.90;;;7.58;71.14;101064.38;5072062;28;20056;-84
2023/12/27 02:08:22;;;;;;;11.95;3.78;;;7.00;99.90;;;7.57;71.02;101054.78;5088451;28;20063;-84
2023/12/27 02:10:50;;;;;;;11.68;4.75;;;7.00;99.90;;;7.53;71.01;101065.91;5056208;28;20079;-84
2023/12/27 02:13:19;;;;;;;10.00;4.28;;;7.00;99.90;;;7.49;71.09;101070.75;5061579;28;20503;-84
2023/12/27 02:15:47;;;;;;;15.93;4.82;;;7.00;99.90;;;7.44;70.95;101078.41;5076014;28;20041;-83
2023/12/27 02:18:16;;;;;;;11.80;4.00;;;6.90;99.90;;;7.39;71.10;101078.94;5072435;28;20046;-84
2023/12/27 02:20:44;;;;;;;13.13;4.78;;;6.90;99.90;;;7.41;70.95;101076.09;5061236;28;20048;-84
2023/12/27 02:23:16;;;;;;;11.65;4.13;;;6.90;99.90;;;7.44;71.35;101070.44;5075938;28;20106;-84
2023/12/27 02:25:46;;;;;;;15.23;4.43;;;7.10;99.90;;;7.42;71.28;101073.28;5071922;28;20041;-84
2023/12/27 02:28:14;;;;;;;11.63;4.07;;;6.90;99.90;;;7.42;71.43;101073.28;5106371;28;20036;-84
2023/12/27 02:30:48;;;;;;;15.00;4.55;;;6.90;99.90;;;7.42;71.19;101069.81;5073797;28;20048;-84
2023/12/27 02:33:16;;;;;;;9.63;3.70;;;6.90;99.90;;;7.40;71.25;101069.97;5104601;28;20433;-83
2023/12/27 02:35:43;;;;;;;11.57;3.50;;;6.90;99.90;;;7.39;70.98;101060.34;5087845;28;20044;-84
2023/12/27 02:38:11;;;;;;;14.98;3.60;;;6.90;99.90;;;7.36;71.16;101054.56;5072379;28;20045;-84
2023/12/27 02:40:38;;;;;;;11.98;4.22;;;6.80;99.90;;;7.33;71.13;101041.66;5072768;28;20084;-84
2023/12/27 02:43:07;;;;;;;13.77;4.15;;;6.80;99.90;;;7.28;71.29;101046.69;5089203;28;20102;-84
2023/12/27 02:45:35;;;;;;;11.77;4.10;;;6.80;99.90;;;7.28;71.53;101044.84;5089552;28;20045;-84
2023/12/27 02:48:03;;;;;;;10.57;3.85;;;6.80;99.90;;;7.29;70.91;101043.00;5051309;28;20447;-84
2023/12/27 02:50:30;;;;;;;12.82;3.90;;;6.80;99.90;;;7.29;70.88;101049.16;5052789;28;20451;-84
2023/12/27 02:52:57;;;;;;;12.90;4.00;;;6.80;99.90;;;7.27;70.94;101039.69;5071854;28;20516;-84
2023/12/27 02:55:25;;;;;;;11.73;3.88;;;6.70;99.90;;;7.23;70.75;101039.25;5057498;28;20041;-84
2023/12/27 02:57:52;;;;;;;12.98;3.80;;;6.70;99.90;;;7.21;70.87;101047.34;5061803;28;20064;-84
2023/12/27 03:00:22;;;;;;;11.10;3.58;;;6.70;99.90;;;7.22;70.96;101032.25;5097901;28;20059;-84
2023/12/27 03:02:49;;;;;;;12.68;3.88;;;6.70;99.90;;;7.23;70.88;101032.09;5076517;28;20500;-83
2023/12/27 03:05:17;;;;;;;15.45;4.57;;;6.90;99.90;;;7.22;71.02;101027.81;5059711;28;20430;-84
2023/12/27 03:07:45;;;;;;;16.92;4.43;;;6.70;99.90;;;7.23;71.14;101018.84;5072890;28;20045;-84
2023/12/27 03:10:12;;;;;;;16.60;4.70;;;6.70;99.90;;;7.27;71.04;101018.47;5075229;28;20049;-83
2023/12/27 03:12:41;;;;;;;14.57;4.70;;;6.70;99.90;;;7.28;71.36;101009.53;5093775;28;20045;-85
2023/12/27 03:15:09;;;;;;;17.30;4.95;;;6.80;99.90;;;7.31;71.32;101009.97;5037198;28;20049;-83
2023/12/27 03:17:39;;;;;;;13.73;4.90;;;6.80;99.90;;;7.31;71.17;101009.16;5077373;28;20040;-84
2023/12/27 03:20:09;;;;;;;13.65;5.10;;;6.80;99.90;;;7.26;70.92;101012.34;5075316;28;20427;-84
2023/12/27 03:22:38;;;;;;;13.35;4.45;;;6.70;99.90;;;7.20;70.93;100999.78;5075760;28;20048;-83
2023/12/27 03:25:07;;;;;;;15.93;4.10;;;6.70;99.90;;;7.20;71.28;101008.56;5078274;28;20040;-84
2023/12/27 03:27:35;;;;;;;16.40;5.40;;;6.70;99.90;;;7.23;71.28;100999.44;5093512;28;20093;-84
2023/12/27 03:30:06;;;;;;;18.35;5.18;;;6.70;99.90;;;7.27;71.54;100998.09;5078343;28;20037;-84
2023/12/27 03:32:33;;;;;;;19.13;5.82;;;6.80;99.90;;;7.30;71.83;101003.03;5061061;28;20048;-84
2023/12/27 03:35:02;;;;;;;18.15;6.22;;;6.80;99.90;;;7.33;71.70;100991.25;5060695;28;20036;-84
2023/12/27 03:37:30;;;;;;;15.23;5.88;;;6.80;99.90;;;7.35;71.76;100979.44;5077142;28;20032;-84
2023/12/27 03:39:59;;;;;;;22.08;6.15;;;6.90;99.90;;;7.36;71.71;100975.78;5066282;28;20044;-84
2023/12/27 03:42:26;;;;;;;18.92;5.78;;;6.90;99.90;;;7.35;72.05;100990.06;5092869;28;20045;-84
2023/12/27 03:44:54;;;;;;;18.83;5.35;;;6.90;99.90;;;7.36;71.89;100990.88;5059382;28;20064;-84
2023/12/27 03:47:22;;;;;;;18.00;6.20;;;6.90;99.90;;;7.35;71.97;100994.53;5076127;28;20044;-84
2023/12/27 03:49:50;;;;;;;18.20;5.15;;;6.80;99.90;;;7.33;71.88;100991.25;5076675;28;20046;-84
2023/12/27 03:52:19;;;;;;;18.67;5.40;;;6.80;99.90;;;7.28;71.88;100981.19;5059938;28;20114;-84
2023/12/27 03:54:47;;;;;;;19.83;5.85;;;6.80;99.90;;;7.28;72.05;100983.81;5077558;28;20044;-84
2023/12/27 03:57:15;;;;;;;18.15;5.65;;;6.80;99.90;;;7.27;72.06;100983.97;5074677;28;20036;-84
2023/12/27 03:59:42;;;;;;;14.73;5.25;;;6.80;99.90;;;7.26;72.10;100969.91;5060292;28;20049;-84
2023/12/27 04:02:10;;;;;;;19.80;6.25;;;6.80;99.90;;;7.27;72.06;100981.31;5076439;28;20048;-84
2023/12/27 04:04:40;;;;;;;15.88;5.35;;;6.80;99.90;;;7.26;72.49;100977.03;5076915;28;20542;-84
2023/12/27 04:07:07;;;;;;;17.95;5.68;;;6.80;99.90;;;7.23;72.30;100981.69;5075374;28;20510;-84
2023/12/27 04:09:40;;;;;;;11.80;4.85;;;6.70;99.90;;;7.18;72.24;100978.75;5080831;28;20056;-84
2023/12/27 04:12:08;;;;;;;14.85;4.93;;;6.70;99.90;;;7.17;72.12;100982.41;5089640;28;20036;-84
2023/12/27 04:14:36;;;;;;;15.57;5.57;;;6.70;99.90;;;7.12;72.31;100966.16;5075273;28;20177;-84
2023/12/27 04:17:04;;;;;;;17.55;5.75;;;6.70;99.90;;;7.15;72.44;100968.47;5075742;28;20499;-84
2023/12/27 04:19:34;;;;;;;20.10;5.82;;;6.70;99.90;;;7.17;72.61;100965.66;5042840;28;20036;-84
2023/12/27 04:22:03;;;;;;;16.35;5.25;;;6.70;99.90;;;7.19;72.61;100969.78;5059625;28;20071;-84
2023/12/27 04:24:31;;;;;;;18.17;5.70;;;6.70;99.90;;;7.18;72.61;100954.06;5082465;28;20077;-84
2023/12/27 04:27:01;;;;;;;20.88;5.75;;;6.70;99.90;;;7.15;72.65;100957.88;5072413;28;20045;-84
2023/12/27 04:29:28;;;;;;;16.33;5.63;;;6.70;99.90;;;7.15;72.65;100963.19;5075166;28;20080;-84
2023/12/27 04:31:55;;;;;;;15.90;5.72;;;6.70;99.90;;;7.16;72.90;100966.66;5075199;28;20092;-84
2023/12/27 04:34:24;;;;;;;15.00;5.38;;;6.70;99.90;;;7.16;73.11;100958.69;5075076;28;20048;-84
2023/12/27 04:36:51;;;;;;;16.33;6.93;;;6.70;99.90;;;7.17;73.31;100960.34;5075670;28;20090;-84
2023/12/27 04:39:19;;;;;;;16.23;5.03;;;6.70;99.90;;;7.19;73.29;100967.13;5074215;28;20058;-85
2023/12/27 04:41:47;;;;;;;17.75;5.50;;;6.70;99.90;;;7.19;73.30;100953.06;5053199;28;20534;-84
2023/12/27 04:44:15;;;;;;;16.52;6.38;;;6.70;99.90;;;7.22;73.47;100947.38;5086678;28;20102;-84
2023/12/27 04:46:43;;;;;;;22.50;5.72;;;6.70;99.90;;;7.22;73.65;100942.91;5076036;28;20123;-84
2023/12/27 04:49:12;;;;;;;22.10;6.00;;;6.80;99.90;;;7.23;73.59;100927.81;5058504;28;20450;-84
2023/12/27 04:51:40;;;;;;;16.42;5.72;;;6.80;99.90;;;7.23;73.75;100920.69;5076006;28;20039;-84
2023/12/27 04:54:07;;;;;;;23.58;5.63;;;6.80;99.90;;;7.26;73.76;100926.63;5041355;28;20135;-84
2023/12/27 04:56:35;;;;;;;21.05;5.95;;;6.80;99.90;;;7.26;73.68;100924.78;5057561;28;20036;-84
2023/12/27 04:59:04;;;;;;;22.88;6.30;;;6.80;99.90;;;7.30;73.69;100922.63;5058619;28;20064;-84
2023/12/27 05:01:34;;;;;;;20.00;5.80;;;6.90;99.90;;;7.33;73.81;100924.94;5075028;28;20075;-84
2023/12/27 05:04:01;;;;;;;15.82;6.22;;;6.90;99.90;;;7.36;73.79;100925.38;5074759;28;20098;-84
2023/12/27 05:06:29;;;;;;;20.52;6.07;;;7.00;99.90;;;7.36;73.92;100924.56;5074208;28;20052;-84
2023/12/27 05:08:59;;;;;;;22.60;6.03;;;6.90;99.90;;;7.36;74.06;100921.91;5075843;28;20071;-84
2023/12/27 05:11:26;;;;;;;16.27;5.90;;;6.90;99.90;;;7.34;74.01;100913.31;5081336;28;20049;-84
2023/12/27 05:13:54;;;;;;;21.30;6.40;;;6.90;99.90;;;7.35;74.13;100904.34;5074702;28;20109;-84
2023/12/27 05:16:21;;;;;;;18.70;6.05;;;6.90;99.90;;;7.34;73.99;100919.44;5057482;28;20151;-83
2023/12/27 05:18:51;;;;;;;12.50;5.43;;;6.90;99.90;;;7.29;74.07;100913.03;5074617;28;20043;-84
2023/12/27 05:21:19;;;;;;;15.73;5.15;;;6.90;99.90;;;7.23;74.13;100911.91;5073993;28;20063;-84
2023/12/27 05:23:48;;;;;;;15.52;5.03;;;6.80;99.90;;;7.17;73.92;100907.28;5074538;28;20102;-84
2023/12/27 05:26:16;;;;;;;14.07;4.65;;;6.80;99.90;;;7.14;74.14;100908.50;5075087;28;20116;-84
2023/12/27 05:28:44;;;;;;;13.45;4.68;;;6.70;99.90;;;7.11;74.16;100905.34;5058011;28;20135;-84
2023/12/27 05:31:12;;;;;;;17.10;4.63;;;6.70;99.90;;;7.08;74.06;100897.78;5057013;28;20135;-84
2023/12/27 05:33:39;;;;;;;12.68;4.80;;;6.70;99.90;;;7.08;74.17;100903.91;5041833;28;20503;-84
2023/12/27 05:36:09;;;;;;;15.55;4.63;;;6.70;99.90;;;7.07;74.05;100894.28;5057165;28;20098;-84
2023/12/27 05:38:37;;;;;;;15.80;4.90;;;6.70;99.90;;;7.07;74.32;100894.28;5076802;28;20064;-84
2023/12/27 05:41:05;;;;;;;16.17;6.38;;;6.70;99.90;;;7.10;74.44;100890.47;5090173;28;20078;-84
2023/12/27 05:43:33;;;;;;;18.08;5.97;;;6.70;99.90;;;7.12;74.76;100886.59;5090671;28;20044;-84
2023/12/27 05:46:00;;;;;;;20.27;6.22;;;6.70;99.90;;;7.15;74.88;100888.09;5075599;28;20044;-84
2023/12/27 05:48:28;;;;;;;18.20;6.30;;;6.70;99.90;;;7.15;74.76;100883.59;5075388;28;20044;-84
2023/12/27 05:50:55;;;;;;;24.60;6.30;;;6.80;99.90;;;7.17;74.82;100880.78;5054133;28;20052;-84
2023/12/27 05:53:24;;;;;;;17.08;5.85;;;6.80;99.90;;;7.19;74.62;100884.91;5078501;28;20052;-84
2023/12/27 05:55:51;;;;;;;22.08;6.35;;;6.80;99.90;;;7.23;74.76;100883.56;5094673;28;20114;-84
2023/12/27 05:58:19;;;;;;;19.52;5.97;;;6.80;99.90;;;7.21;74.55;100880.22;5075735;28;20441;-84
2023/12/27 06:00:47;;;;;;;22.13;6.40;;;6.80;99.90;;;7.23;74.83;100888.84;5056924;28;20048;-84
2023/12/27 06:03:15;;;;;;;21.45;6.55;;;6.80;99.90;;;7.26;74.67;100884.19;5057521;28;20055;-83
2023/12/27 06:05:42;;;;;;;15.60;5.90;;;6.80;99.90;;;7.24;74.74;100881.72;5073178;28;20053;-83
2023/12/27 06:08:09;;;;;;;20.50;6.50;;;7.00;99.90;;;7.25;74.66;100885.19;5076823;28;20119;-84
2023/12/27 06:10:39;;;;;;;18.58;6.00;;;6.90;99.90;;;7.26;74.84;100885.00;5080420;28;20098;-84
2023/12/27 06:13:06;;;;;;;23.27;6.57;;;6.90;99.90;;;7.26;74.97;100874.38;5073208;28;20053;-84
2023/12/27 06:15:34;;;;;;;15.68;6.25;;;6.90;99.90;;;7.30;75.15;100881.00;5075380;28;20052;-84
2023/12/27 06:18:01;;;;;;;19.83;6.05;;;6.90;99.90;;;7.31;75.06;100872.03;5073861;28;20040;-84
2023/12/27 06:20:29;;;;;;;14.63;6.13;;;6.90;99.90;;;7.33;75.07;100867.38;5092212;28;20040;-85
2023/12/27 06:22:57;;;;;;;17.83;6.03;;;7.00;99.90;;;7.33;75.28;100861.25;5078427;28;20043;-85
2023/12/27 06:25:25;;;;;;;20.23;6.70;;;7.00;99.90;;;7.32;75.47;100864.88;5107981;28;20072;-84
2023/12/27 06:27:54;;;;;;;18.92;6.53;;;7.00;99.90;;;7.34;75.61;100860.25;5082210;28;20041;-85
2023/12/27 06:30:21;;;;;;;20.58;6.50;;;7.10;99.90;;;7.37;75.62;100858.06;5081574;28;20036;-85
2023/12/27 06:32:49;;;;;;;22.23;6.70;;;7.00;99.90;;;7.39;75.75;100849.91;5081301;28;20062;-84
2023/12/27 06:35:17;;;;;;;23.35;6.20;;;7.00;99.90;;;7.38;75.81;100845.63;5076375;28;20079;-83
2023/12/27 06:37:44;;;;;;;17.58;6.63;;;7.00;99.90;;;7.40;75.82;100849.72;5062272;28;20192;-84
2023/12/27 06:40:12;;;;;;;16.60;6.25;;;7.00;99.90;;;7.44;75.99;100842.22;5017005;28;20545;-84
2023/12/27 06:42:40;;;;;;;16.52;5.80;;;7.10;99.90;;;7.45;75.99;100841.22;5080873;28;20076;-84
2023/12/27 06:45:11;;;;;;;18.65;5.97;;;7.10;99.90;;;7.46;75.80;100837.56;5079969;28;20048;-83
2023/12/27 06:47:38;;;;;;;19.67;6.45;;;7.10;99.90;;;7.48;75.98;100831.06;5093566;28;20047;-83
2023/12/27 06:50:08;;;;;;;15.50;5.88;;;7.10;99.90;;;7.52;75.98;100831.53;5062186;28;20049;-83
2023/12/27 06:52:36;;;;;;;15.13;5.82;;;7.20;99.90;;;7.52;76.13;100838.69;5077680;28;20056;-84
2023/12/27 06:55:05;;;;;;;17.15;5.80;;;7.20;99.90;;;7.53;76.48;100827.88;5081775;28;20054;-85
2023/12/27 06:57:33;;;;;;;19.42;5.55;;;7.20;99.90;;;7.54;76.55;100828.69;5079819;28;20037;-86
2023/12/27 07:00:04;;;;;;;14.40;4.75;;;7.20;99.90;;;7.56;76.41;100824.84;5088760;28;20503;-83
2023/12/27 07:02:34;;;;;;;16.77;4.95;;;7.20;99.90;;;7.59;76.77;100819.16;5099063;28;20044;-85
2023/12/27 07:05:02;;;;;;;22.10;5.75;;;7.30;99.90;;;7.63;77.04;100819.63;5091410;28;20147;-85
2023/12/27 07:07:30;;;;;;;12.80;4.53;;;7.30;99.90;;;7.65;77.19;100807.81;5078876;28;20419;-84
2023/12/27 07:09:57;;;;;;;11.13;4.40;;;7.40;99.90;;;7.65;77.45;100799.84;5078237;28;20041;-85
2023/12/27 07:12:25;;;;;;;14.00;3.92;;;7.30;99.90;;;7.66;77.70;100790.91;5077121;28;20048;-84
2023/12/27 07:14:52;;;;;;;10.70;4.03;;;7.40;99.90;;;7.70;78.05;100780.72;5076940;28;20070;-82
2023/12/27 07:17:20;;;;;;;14.80;4.18;;;7.50;99.90;;;7.70;78.01;100770.09;5084759;28;20086;-84
2023/12/27 07:19:49;;;;;;;8.77;3.88;;;7.40;99.90;;;7.67;78.49;100770.50;4994995;28;20144;-83
2023/12/27 07:22:18;;;;;;;14.85;3.95;;;7.40;99.90;;;7.71;78.56;100767.28;5076867;28;20131;-83
2023/12/27 07:24:45;;;;;;;9.43;4.00;;;7.50;99.90;;;7.77;78.65;100770.22;5076205;28;20049;-83
2023/12/27 07:27:13;;;;;;;11.07;4.03;;;7.50;99.90;;;7.80;78.64;100767.97;5079492;28;20058;-83
2023/12/27 07:29:40;;;;;;;12.27;3.92;;;7.60;99.90;;;7.83;78.74;100764.97;5081049;28;20044;-83
2023/12/27 07:32:08;;;;;;;10.80;4.20;;;7.60;99.90;;;7.86;78.75;100755.81;5082856;28;20098;-84
2023/12/27 07:34:36;;;;;;;11.50;4.07;;;7.60;99.90;;;7.87;78.63;100757.47;5076997;28;20080;-83
2023/12/27 07:37:05;;;;;;;15.73;4.70;;;7.60;99.90;;;7.88;78.71;100759.91;5110539;28;20045;-84
2023/12/27 07:39:33;;;;;;;12.35;4.22;;;7.50;99.90;;;7.87;78.97;100763.59;5079663;28;20126;-82
2023/12/27 07:42:01;;;;;;;12.60;4.40;;;7.60;99.90;;;7.88;79.14;100756.44;5079166;28;20068;-83
2023/12/27 07:44:29;;;;;;;10.27;3.63;;;7.60;99.90;;;7.91;79.26;100750.78;5066086;28;20130;-85
2023/12/27 07:46:58;;;;;;;11.07;4.57;;;7.60;99.90;;;7.92;79.35;100755.88;5086917;28;20052;-84
2023/12/27 07:49:26;;;;;;;13.25;4.53;;;7.70;99.90;;;7.96;79.46;100764.31;5077644;28;20044;-84
2023/12/27 07:51:54;;;;;;;13.85;4.50;;;7.70;99.90;;;7.97;79.51;100756.16;5076299;28;20047;-85
2023/12/27 07:54:23;;;;;;;13.15;4.32;;;7.70;99.90;;;8.00;79.59;100762.91;5059580;28;20084;-85
2023/12/27 07:56:50;;;;;;;13.95;4.35;;;7.80;99.90;;;8.01;79.67;100764.56;5081337;28;20147;-85
2023/12/27 07:59:18;;;;;;;9.88;3.80;;;7.80;99.90;;;8.03;79.87;100765.19;5058973;28;20044;-85
2023/12/27 08:01:45;;;;;;;8.95;3.65;;;7.80;99.90;;;8.04;79.97;100758.03;5073209;28;20040;-84
2023/12/27 08:04:13;;;;;;;11.50;3.95;;;7.80;99.90;;;8.07;80.16;100760.34;5091343;28;20414;-84
2023/12/27 08:06:42;;;;;;;13.15;4.28;;;7.80;99.90;;;8.09;80.35;100760.97;5060782;28;20090;-85
2023/12/27 08:09:11;;;;;;;10.88;4.03;;;7.90;99.90;;;8.09;80.54;100748.50;5078467;28;20506;-85
2023/12/27 08:11:40;;;;;;;10.25;4.20;;;7.90;99.90;;;8.11;80.80;100748.34;5072091;28;20052;-84
2023/12/27 08:14:08;;;;;;;12.73;4.57;;;7.90;99.90;;;8.11;81.10;100743.84;5067754;28;20063;-84
2023/12/27 08:16:35;;;;;;;10.70;3.60;;;7.90;99.90;;;8.10;81.42;100742.19;5058703;28;20040;-84
2023/12/27 08:19:03;;;;;;;13.18;4.85;;;7.90;99.90;;;8.13;81.49;100748.94;5070096;28;20532;-84
2023/12/27 08:21:31;;;;;;;13.00;4.07;;;8.00;99.90;;;8.14;81.77;100746.09;5058488;28;20515;-84
2023/12/27 08:23:59;;;;;;;10.02;3.80;;;8.00;99.90;;;8.14;82.35;100746.09;5026173;28;20074;-84
2023/12/27 08:26:26;;;;;;;7.05;3.42;;;8.00;99.90;;;8.17;82.67;100737.75;5058258;28;20049;-84
2023/12/27 08:28:58;;;;;;;10.27;3.17;;;8.00;99.90;;;8.19;82.66;100746.34;5040087;28;20048;-84
2023/12/27 08:31:25;;;;;;;7.50;3.10;;;8.00;99.90;;;8.19;83.13;100737.56;5071530;28;20040;-84
2023/12/27 08:33:53;;;;;;;10.38;3.30;;;8.00;99.90;;;8.17;83.82;100740.44;5077204;28;20045;-84
2023/12/27 08:36:21;;;;;;;12.63;4.18;;;8.10;99.90;;;8.13;84.66;100738.31;5076976;28;20037;-84
2023/12/27 08:38:48;;;;;;;8.60;3.28;;;8.10;99.90;;;8.15;84.79;100742.47;5076056;28;20076;-84
2023/12/27 08:41:16;;;;;;;5.78;2.80;;;8.10;99.90;;;8.18;84.83;100741.25;5075798;28;20043;-84
2023/12/27 08:43:44;;;;;;;8.40;3.28;;;8.10;99.90;;;8.20;84.94;100745.38;5042077;28;20067;-85
2023/12/27 08:46:14;;;;;;;9.43;3.47;;;8.10;99.90;;;8.24;85.18;100743.13;5076362;28;20124;-84
2023/12/27 08:48:42;;;;;;;9.73;2.90;;;8.10;99.90;;;8.29;85.11;100737.25;5092843;28;20048;-84
2023/12/27 08:51:13;;;;;;;8.93;3.05;;;8.10;99.90;;;8.32;85.40;100734.22;5074280;28;20132;-84
2023/12/27 08:53:41;;;;;;;7.68;3.28;;;8.20;99.90;;;8.30;85.63;100729.13;5074334;28;20052;-84
2023/12/27 08:56:09;;;;;;;7.60;2.72;;;8.20;99.90;;;8.32;85.84;100726.25;5073917;28;20056;-85
2023/12/27 08:58:37;;;;;;;10.88;2.90;;;8.30;99.90;;;8.34;85.70;100721.56;5074137;28;20196;-84
2023/12/27 09:01:05;;;;;;;7.20;2.85;;;8.20;99.90;;;8.36;85.83;100723.06;5073256;28;20512;-84
2023/12/27 09:03:34;;;;;;;8.98;3.05;;;8.30;99.90;;;8.39;85.73;100732.47;5074186;28;20470;-84
2023/12/27 09:06:02;;;;;;;6.40;2.47;;;8.20;99.90;;;8.40;85.74;100728.81;5056934;28;20098;-84
2023/12/27 09:08:29;;;;;;;8.00;3.05;;;8.30;99.90;;;8.36;86.19;100723.06;5073929;28;20040;-85
2023/12/27 09:10:57;;;;;;;9.18;3.42;;;8.30;99.90;;;8.36;86.77;100725.72;5074727;28;20044;-85
2023/12/27 09:13:24;;;;;;;6.03;2.67;;;8.30;99.90;;;8.35;87.04;100726.72;5074721;28;20036;-84
2023/12/27 09:15:52;;;;;;;5.38;2.60;;;8.30;99.90;;;8.40;87.34;100731.50;5076469;28;20143;-85
2023/12/27 09:18:20;;;;;;;6.32;2.65;;;8.40;99.90;;;8.38;87.29;100736.97;5075519;28;20554;-84
2023/12/27 09:20:49;;;;;;;10.23;2.72;;;8.40;99.90;;;8.36;87.90;100728.38;5096289;28;20463;-87
2023/12/27 09:23:16;;;;;;;7.10;2.63;;;8.40;99.90;;;8.37;88.22;100724.72;5072999;28;20408;-86
2023/12/27 09:25:44;;;;;;;5.53;2.78;;;8.40;99.90;;;8.45;87.98;100721.09;5056490;28;20418;-86
2023/12/27 09:28:11;;;;;;;8.43;2.83;;;8.40;99.90;;;8.48;87.93;100704.75;5072972;28;20040;-86
2023/12/27 09:30:40;;;;;;;6.45;2.80;;;8.50;99.90;;;8.48;88.24;100710.06;5074259;28;20048;-85
2023/12/27 09:33:08;;;;;;;7.70;2.92;;;8.50;99.90;;;8.50;88.59;100694.78;5075534;28;20072;-85
2023/12/27 09:35:36;;;;;;;10.35;2.80;;;8.50;99.90;;;8.52;88.36;100684.75;5077116;28;20059;-85
2023/12/27 09:38:05;;;;;;;6.15;2.60;;;8.50;99.90;;;8.57;88.48;100692.16;5077303;28;20040;-85
2023/12/27 09:40:33;;;;;;;8.27;2.95;;;8.50;99.90;;;8.54;88.63;100679.25;5040029;28;20052;-85
2023/12/27 09:43:03;;;;;;;7.05;3.00;;;8.50;99.90;;;8.57;88.65;100685.00;5074986;28;20045;-85
2023/12/27 09:45:36;;;;;;;11.10;3.70;;;8.60;99.90;;;8.63;88.74;100683.41;5075669;28;20392;-85
2023/12/27 09:48:07;;;;;;;8.45;2.85;;;8.60;99.90;;;8.64;88.63;100693.06;5074344;28;20059;-85
2023/12/27 09:50:36;;;;;;;6.53;2.80;;;8.60;99.90;;;8.61;88.56;100686.25;5073522;28;20165;-84
2023/12/27 09:53:06;;;;;;;8.07;2.70;;;8.60;99.90;;;8.59;88.91;100685.66;5074583;28;20055;-87
2023/12/27 09:55:34;;;;;;;7.13;2.78;;;8.60;99.90;;;8.56;89.07;100688.69;5073539;28;20487;-85
2023/12/27 09:58:02;;;;;;;7.47;3.17;;;8.60;99.90;;;8.54;89.20;100674.78;5072791;28;20127;-85
2023/12/27 10:00:34;;;;;;;7.60;3.10;;;8.60;99.90;;;8.58;89.35;100680.50;5072772;28;20041;-85
2023/12/27 10:03:08;;;;;;;5.13;2.85;;;8.60;99.90;;;8.62;89.16;100679.94;5073741;28;20503;-85
2023/12/27 10:05:46;;;;;;;7.60;3.10;;;8.60;99.90;;;8.66;88.98;100683.84;5072982;28;20131;-85
2023/12/27 10:08:15;;;;;;;7.88;2.90;;;8.70;99.90;;;8.67;89.07;100668.72;5073579;28;20106;-85
2023/12/27 10:10:44;;;;;;;6.18;2.90;;;8.70;99.90;;;8.67;88.87;100671.38;5056588;28;20037;-85
2023/12/27 10:13:13;;;;;;;5.85;2.63;;;8.70;99.90;;;8.68;89.01;100673.81;5056276;28;20565;-84
2023/12/27 10:15:40;;;;;;;6.55;2.80;;;8.70;99.90;;;8.69;88.87;100675.50;5073799;28;20052;-85
2023/12/27 10:18:08;;;;;;;7.07;2.72;;;8.70;99.90;;;8.68;88.88;100673.00;5072748;28;20531;-84
2023/12/27 10:20:38;;;;;;;9.77;2.60;;;8.60;99.90;;;8.71;89.00;100670.78;5073322;28;20496;-84
2023/12/27 10:23:06;;;;;;;7.22;2.75;;;8.70;99.90;;;8.74;88.99;100661.63;5090368;28;20048;-84
2023/12/27 10:25:36;;;;;;;6.57;2.60;;;8.70;99.90;;;8.77;89.01;100646.06;5074968;28;20098;-85